Time;durP1;ratioP1;P1;durP2;ratioP2;P2;SDS_P1;SDS_P2;PMS_P1;PMS_P2;Temp;Humidity;BMP_temperature;BMP_pressure;BME280_temperature;BME280_humidity;BME280_pressure;Samples;Min_cycle;Max_cycle;Signal;HPM_P1;HPM_P2
2022/03/25 00:01:00;;;;;;;0.50;0.50;;;;;;;5.35;100.00;102336.63;5048009;28;20053;-85
2022/03/25 00:03:34;;;;;;;0.40;0.40;;;;;;;5.46;100.00;102332.50;5040436;28;20049;-85
2022/03/25 00:06:07;;;;;;;0.50;0.50;;;;;;;5.34;100.00;102321.44;5055543;28;20073;-84
2022/03/25 00:08:41;;;;;;;0.50;0.50;;;;;;;5.38;100.00;102340.78;5040177;28;20042;-85
2022/03/25 00:11:14;;;;;;;0.40;0.40;;;;;;;5.31;100.00;102338.06;5036442;28;20049;-85
2022/03/25 00:13:43;;;;;;;0.60;0.60;;;;;;;5.29;100.00;102345.53;5040321;28;20417;-82
2022/03/25 00:16:16;;;;;;;0.60;0.60;;;;;;;5.26;100.00;102335.13;5041970;28;20053;-85
2022/03/25 00:18:49;;;;;;;0.50;0.50;;;;;;;5.18;100.00;102340.72;5046347;28;20056;-85
2022/03/25 00:21:22;;;;;;;0.60;0.60;;;;;;;5.16;100.00;102340.91;5047816;28;20056;-85
2022/03/25 00:23:57;;;;;;;0.40;0.40;;;;;;;5.15;100.00;102339.28;5035754;28;20057;-85
2022/03/25 00:26:30;;;;;;;0.50;0.50;;;;;;;5.04;100.00;102334.44;5044845;28;20045;-85
2022/03/25 00:29:04;;;;;;;0.50;0.50;;;;;;;5.04;100.00;102324.50;5033064;28;20049;-85
2022/03/25 00:31:37;;;;;;;0.60;0.60;;;;;;;5.10;100.00;102328.25;5040484;28;20493;-85
2022/03/25 00:34:11;;;;;;;0.60;0.60;;;;;;;5.19;100.00;102334.28;5038059;28;20375;-86
2022/03/25 00:36:39;;;;;;;1.02;0.60;;;;;;;5.14;100.00;102321.41;5041589;28;20045;-85
2022/03/25 00:39:09;;;;;;;0.60;0.60;;;;;;;5.19;100.00;102327.03;5046658;28;20407;-85
2022/03/25 00:41:38;;;;;;;0.57;0.57;;;;;;;5.10;100.00;102331.75;5041622;28;20045;-85
2022/03/25 00:44:07;;;;;;;0.60;0.60;;;;;;;4.97;100.00;102330.88;5037030;28;20053;-84
2022/03/25 00:46:39;;;;;;;0.57;0.57;;;;;;;4.99;100.00;102332.34;5035895;28;20084;-84
2022/03/25 00:49:07;;;;;;;0.70;0.70;;;;;;;4.97;100.00;102337.09;5040658;28;20049;-85
2022/03/25 00:51:40;;;;;;;0.50;0.50;;;;;;;5.13;100.00;102333.22;5048489;28;20472;-85
2022/03/25 00:54:15;;;;;;;0.60;0.60;;;;;;;5.02;100.00;102331.94;5041213;28;20037;-85
2022/03/25 00:56:48;;;;;;;0.63;0.63;;;;;;;4.99;100.00;102336.94;5040694;28;20056;-85
2022/03/25 00:59:22;;;;;;;0.60;0.60;;;;;;;4.82;100.00;102315.69;5038538;28;20049;-85
2022/03/25 01:01:55;;;;;;;0.60;0.60;;;;;;;4.87;100.00;102334.78;5037189;28;20049;-84
2022/03/25 01:04:29;;;;;;;0.50;0.50;;;;;;;4.93;100.00;102331.28;5050986;28;20052;-84
2022/03/25 01:07:02;;;;;;;0.60;0.60;;;;;;;4.91;100.00;102322.56;5052007;28;20044;-85
2022/03/25 01:09:32;;;;;;;0.55;0.55;;;;;;;5.00;100.00;102336.72;5047556;28;20053;-83
2022/03/25 01:12:06;;;;;;;0.60;0.60;;;;;;;4.97;100.00;102322.78;5048318;28;20513;-84
2022/03/25 01:14:40;;;;;;;0.60;0.60;;;;;;;5.09;100.00;102337.38;5038522;28;20048;-84
2022/03/25 01:17:15;;;;;;;0.60;0.60;;;;;;;5.08;100.00;102314.09;5040430;28;20057;-85
2022/03/25 01:19:48;;;;;;;0.50;0.50;;;;;;;5.11;100.00;102322.63;5037609;28;20045;-85
2022/03/25 01:22:21;;;;;;;0.70;0.70;;;;;;;5.21;100.00;102327.66;5031691;28;20045;-84
2022/03/25 01:24:51;;;;;;;0.63;0.63;;;;;;;5.20;100.00;102331.38;5036851;28;20041;-83
2022/03/25 01:27:24;;;;;;;0.60;0.60;;;;;;;5.15;100.00;102336.56;5041136;28;20049;-85
2022/03/25 01:29:52;;;;;;;0.57;0.57;;;;;;;5.03;100.00;102330.91;5040916;28;20469;-84
2022/03/25 01:32:26;;;;;;;0.60;0.60;;;;;;;4.96;100.00;102329.22;5050184;28;20060;-85
2022/03/25 01:34:59;;;;;;;0.60;0.60;;;;;;;4.89;100.00;102334.59;5046208;28;20409;-85
2022/03/25 01:37:32;;;;;;;0.60;0.60;;;;;;;4.78;100.00;102330.59;5048020;28;20048;-84
2022/03/25 01:40:10;;;;;;;1.67;0.60;;;;;;;4.72;100.00;102331.41;5051378;28;20061;-85
2022/03/25 01:42:43;;;;;;;0.60;0.60;;;;;;;4.77;100.00;102331.63;5033199;28;20060;-85
2022/03/25 01:45:29;;;;;;;0.60;0.60;;;;;;;4.79;100.00;102326.03;5053396;28;20642;-85
2022/03/25 01:48:08;;;;;;;0.50;0.50;;;;;;;4.88;100.00;102335.63;5047662;28;20429;-84
2022/03/25 01:50:37;;;;;;;0.60;0.60;;;;;;;4.92;100.00;102334.19;5041273;28;20044;-84
2022/03/25 01:53:11;;;;;;;0.60;0.60;;;;;;;4.93;100.00;102327.78;5060125;28;20492;-86
2022/03/25 01:55:50;;;;;;;0.60;0.60;;;;;;;4.99;100.00;102336.94;5047558;28;20077;-85
2022/03/25 01:58:28;;;;;;;0.73;0.73;;;;;;;5.01;100.00;102332.16;5041403;28;20049;-85
2022/03/25 02:00:58;;;;;;;0.50;0.50;;;;;;;5.00;100.00;102336.72;5042380;28;20410;-86
2022/03/25 02:03:27;;;;;;;0.70;0.70;;;;;;;5.05;100.00;102336.09;5050492;28;20041;-84
2022/03/25 02:06:00;;;;;;;0.60;0.60;;;;;;;5.01;100.00;102324.88;5062974;28;20520;-85
2022/03/25 02:08:33;;;;;;;0.55;0.55;;;;;;;5.01;100.00;102329.44;5048400;28;20056;-85
2022/03/25 02:11:09;;;;;;;0.65;0.65;;;;;;;4.99;100.00;102326.13;5050020;28;20061;-86
2022/03/25 02:13:42;;;;;;;0.60;0.60;;;;;;;4.88;100.00;102314.88;5049233;28;20052;-84
2022/03/25 02:16:15;;;;;;;0.63;0.63;;;;;;;4.97;100.00;102325.50;5047378;28;20044;-85
2022/03/25 02:18:43;;;;;;;0.60;0.60;;;;;;;4.91;100.00;102316.34;5052790;28;20052;-85
2022/03/25 02:21:17;;;;;;;0.70;0.70;;;;;;;4.90;100.00;102320.06;5050054;28;20417;-85
2022/03/25 02:23:52;;;;;;;0.55;0.55;;;;;;;4.85;100.00;102326.06;5049488;28;20049;-85
2022/03/25 02:26:25;;;;;;;0.60;0.60;;;;;;;4.85;100.00;102322.56;5049429;28;20052;-84
2022/03/25 02:29:01;;;;;;;0.60;0.60;;;;;;;4.81;100.00;102324.00;5045599;28;20413;-85
2022/03/25 02:31:35;;;;;;;0.70;0.70;;;;;;;4.82;100.00;102318.38;5046076;28;20047;-85
2022/03/25 02:34:10;;;;;;;0.77;0.77;;;;;;;4.81;100.00;102326.69;5035143;28;20053;-84
2022/03/25 02:36:45;;;;;;;0.70;0.70;;;;;;;4.83;100.00;102314.63;5046610;28;20057;-83
2022/03/25 02:39:17;;;;;;;0.60;0.60;;;;;;;4.90;100.00;102320.06;5044383;28;20049;-82
2022/03/25 02:41:51;;;;;;;0.67;0.67;;;;;;;4.84;100.00;102305.50;5047202;28;20402;-83
2022/03/25 02:44:24;;;;;;;0.70;0.70;;;;;;;4.77;100.00;102308.19;5039031;28;20061;-83
2022/03/25 02:46:52;;;;;;;0.68;0.68;;;;;;;4.71;100.00;102318.94;5047841;28;20065;-82
2022/03/25 02:49:25;;;;;;;0.70;0.70;;;;;;;4.73;100.00;102308.78;5041516;28;20061;-83
2022/03/25 02:51:58;;;;;;;0.70;0.70;;;;;;;4.76;100.00;102319.16;5065745;28;20061;-82
2022/03/25 02:54:28;;;;;;;0.60;0.60;;;;;;;4.66;100.00;102303.38;5057523;28;20041;-83
2022/03/25 02:57:01;;;;;;;0.60;0.60;;;;;;;4.68;100.00;102311.25;5038006;28;20054;-83
2022/03/25 02:59:34;;;;;;;0.70;0.70;;;;;;;4.64;100.00;102313.53;5047356;28;20037;-83
2022/03/25 03:02:07;;;;;;;0.60;0.60;;;;;;;4.53;100.00;102312.22;5045592;28;20053;-82
2022/03/25 03:04:40;;;;;;;0.70;0.70;;;;;;;4.64;100.00;102321.63;5042722;28;20058;-83
2022/03/25 03:07:08;;;;;;;0.68;0.68;;;;;;;4.52;100.00;102318.66;5041781;28;20444;-82
2022/03/25 03:09:43;;;;;;;0.70;0.70;;;;;;;4.57;100.00;102316.19;5045034;28;20053;-83
2022/03/25 03:12:16;;;;;;;0.60;0.60;;;;;;;4.49;100.00;102316.34;5036527;28;20072;-83
2022/03/25 03:14:44;;;;;;;0.85;0.77;;;;;;;4.53;100.00;102316.75;5042963;28;20072;-82
2022/03/25 03:17:13;;;;;;;0.60;0.60;;;;;;;4.48;100.00;102320.06;5046181;28;20060;-82
2022/03/25 03:19:46;;;;;;;0.60;0.60;;;;;;;4.43;100.00;102306.34;5046840;28;20059;-82
2022/03/25 03:22:14;;;;;;;0.70;0.70;;;;;;;4.52;100.00;102313.25;5059539;28;20389;-83
2022/03/25 03:24:49;;;;;;;0.60;0.60;;;;;;;4.55;100.00;102312.03;5037561;28;20041;-83
2022/03/25 03:27:17;;;;;;;0.65;0.65;;;;;;;4.57;100.00;102310.81;5041219;28;20060;-83
2022/03/25 03:29:50;;;;;;;0.70;0.70;;;;;;;4.63;100.00;102317.25;5048076;28;20555;-83
2022/03/25 03:32:19;;;;;;;0.70;0.70;;;;;;;4.63;100.00;102302.91;5043214;28;20662;-83
2022/03/25 03:34:53;;;;;;;0.68;0.68;;;;;;;4.51;100.00;102300.78;5049306;28;20053;-83
2022/03/25 03:37:26;;;;;;;0.50;0.50;;;;;;;4.63;100.00;102309.16;5034048;28;20053;-83
2022/03/25 03:40:00;;;;;;;0.70;0.70;;;;;;;4.61;100.00;102316.59;5041933;28;20543;-82
2022/03/25 03:42:34;;;;;;;0.70;0.70;;;;;;;4.56;100.00;102300.22;5038365;28;20049;-83
2022/03/25 03:45:08;;;;;;;0.73;0.73;;;;;;;4.55;100.00;102312.84;5060555;28;20496;-82
2022/03/25 03:47:37;;;;;;;0.80;0.80;;;;;;;4.59;100.00;102305.19;5039892;28;20068;-83
2022/03/25 03:50:12;;;;;;;0.60;0.60;;;;;;;4.65;100.00;102306.25;5052556;28;20049;-83
2022/03/25 03:52:45;;;;;;;0.65;0.65;;;;;;;4.66;100.00;102308.75;5046200;28;20489;-83
2022/03/25 03:55:20;;;;;;;0.70;0.70;;;;;;;4.62;100.00;102307.50;5050658;28;20056;-83
2022/03/25 03:57:53;;;;;;;0.60;0.60;;;;;;;4.69;100.00;102307.53;5054300;28;20065;-83
2022/03/25 04:00:26;;;;;;;0.70;0.70;;;;;;;4.67;100.00;102302.34;5035040;28;20045;-82
2022/03/25 04:02:55;;;;;;;0.80;0.80;;;;;;;4.65;100.00;102301.69;5048735;28;20064;-84
2022/03/25 04:05:31;;;;;;;0.70;0.70;;;;;;;4.63;100.00;102303.78;5054194;28;20060;-83
2022/03/25 04:08:05;;;;;;;0.80;0.80;;;;;;;4.46;100.00;102318.59;5044861;28;20053;-83
2022/03/25 04:10:34;;;;;;;0.70;0.70;;;;;;;4.11;100.00;102315.91;5052051;28;20139;-83
2022/03/25 04:13:07;;;;;;;0.52;0.52;;;;;;;3.94;100.00;102320.75;5044331;28;20053;-82
2022/03/25 04:15:35;;;;;;;0.60;0.60;;;;;;;3.51;100.00;102322.44;5043981;28;20033;-83
2022/03/25 04:18:09;;;;;;;0.60;0.60;;;;;;;3.15;100.00;102327.81;5043631;28;20398;-83
2022/03/25 04:20:37;;;;;;;0.60;0.60;;;;;;;3.07;100.00;102336.84;5045309;28;20409;-83
2022/03/25 04:23:10;;;;;;;0.60;0.60;;;;;;;2.91;100.00;102327.13;5045416;28;20057;-83
2022/03/25 04:25:39;;;;;;;0.63;0.63;;;;;;;3.10;100.00;102339.16;5046495;28;20041;-83
2022/03/25 04:28:12;;;;;;;0.80;0.80;;;;;;;3.15;100.00;102336.75;5031288;28;20053;-82
2022/03/25 04:30:45;;;;;;;0.70;0.70;;;;;;;3.04;100.00;102332.69;5036969;28;20072;-82
2022/03/25 04:33:14;;;;;;;0.80;0.80;;;;;;;2.81;100.00;102332.81;5044719;28;20057;-82
2022/03/25 04:35:47;;;;;;;0.80;0.80;;;;;;;2.74;100.00;102331.91;5049204;28;20045;-83
2022/03/25 04:38:20;;;;;;;0.90;0.90;;;;;;;2.93;100.00;102345.78;5049349;28;20041;-82
2022/03/25 04:40:50;;;;;;;1.10;1.10;;;;;;;2.96;100.00;102331.97;5042096;28;20049;-82
2022/03/25 04:43:23;;;;;;;1.00;1.00;;;;;;;3.01;100.00;102353.72;5043476;28;20048;-82
2022/03/25 04:45:57;;;;;;;1.27;1.20;;;;;;;2.98;100.00;102349.56;5047639;28;20049;-83
2022/03/25 04:48:30;;;;;;;1.10;1.10;;;;;;;3.00;100.00;102352.09;5040614;28;20104;-82
2022/03/25 04:50:58;;;;;;;1.20;1.20;;;;;;;3.02;100.00;102348.16;5047788;28;20060;-83
2022/03/25 04:53:27;;;;;;;1.35;1.25;;;;;;;3.05;100.00;102353.19;5038628;28;20040;-83
2022/03/25 04:55:56;;;;;;;1.20;1.20;;;;;;;3.08;100.00;102351.13;5047122;28;20457;-82
2022/03/25 04:58:30;;;;;;;1.50;1.40;;;;;;;3.01;100.00;102345.66;5047052;28;20049;-83
2022/03/25 05:01:03;;;;;;;1.30;1.30;;;;;;;2.94;100.00;102356.38;5042341;28;20057;-82
2022/03/25 05:03:36;;;;;;;1.70;1.60;;;;;;;2.92;100.00;102355.72;5044506;28;20045;-82
2022/03/25 05:06:09;;;;;;;1.67;1.58;;;;;;;3.01;100.00;102357.28;5045648;28;20041;-82
2022/03/25 05:08:42;;;;;;;1.73;1.63;;;;;;;3.21;100.00;102349.44;5049730;28;20057;-82
2022/03/25 05:11:12;;;;;;;1.73;1.63;;;;;;;3.18;100.00;102355.19;5050222;28;20052;-83
2022/03/25 05:13:45;;;;;;;1.73;1.63;;;;;;;3.31;100.00;102349.13;5040142;28;20428;-83
2022/03/25 05:16:18;;;;;;;1.90;1.80;;;;;;;3.40;100.00;102350.69;5045885;28;20068;-82
2022/03/25 05:18:46;;;;;;;1.85;1.75;;;;;;;3.52;100.00;102356.41;5044984;28;20056;-83
2022/03/25 05:21:19;;;;;;;2.00;1.90;;;;;;;3.61;100.00;102354.41;5047348;28;20500;-82
2022/03/25 05:23:52;;;;;;;1.80;1.70;;;;;;;3.64;100.00;102353.19;5045182;28;20045;-83
2022/03/25 05:26:27;;;;;;;1.98;1.88;;;;;;;3.70;100.00;102355.09;5046902;28;20041;-83
2022/03/25 05:28:55;;;;;;;1.83;1.73;;;;;;;3.78;100.00;102356.84;5047482;28;20049;-83
2022/03/25 05:31:28;;;;;;;2.10;2.00;;;;;;;3.83;100.00;102357.94;5052363;28;20049;-83
2022/03/25 05:34:03;;;;;;;1.88;1.77;;;;;;;3.87;100.00;102359.22;5050882;28;20048;-82
2022/03/25 05:36:37;;;;;;;2.00;1.90;;;;;;;4.00;100.00;102354.97;5049941;28;20052;-82
2022/03/25 05:39:07;;;;;;;1.92;1.83;;;;;;;4.12;100.00;102348.03;5055764;28;20127;-82
2022/03/25 05:41:42;;;;;;;2.10;2.00;;;;;;;4.25;100.00;102360.75;5054772;28;20037;-82
2022/03/25 05:44:15;;;;;;;2.20;2.10;;;;;;;4.34;100.00;102362.28;5051405;28;20060;-82
2022/03/25 05:46:48;;;;;;;2.10;2.00;;;;;;;4.47;100.00;102352.63;5053270;28;20508;-82
2022/03/25 05:49:21;;;;;;;1.80;1.70;;;;;;;4.56;100.00;102356.84;5051642;28;20045;-83
2022/03/25 05:51:55;;;;;;;1.75;1.65;;;;;;;4.70;100.00;102365.84;5046655;28;20049;-83
2022/03/25 05:54:28;;;;;;;1.58;1.48;;;;;;;4.73;100.00;102360.84;5051655;28;20052;-83
2022/03/25 05:57:03;;;;;;;1.60;1.50;;;;;;;4.91;100.00;102370.28;5045786;28;20812;-83
2022/03/25 05:59:31;;;;;;;1.70;1.60;;;;;;;4.99;100.00;102366.59;5041836;28;20048;-83
2022/03/25 06:02:05;;;;;;;1.63;1.52;;;;;;;5.11;100.00;102365.00;5048903;28;20057;-83
2022/03/25 06:04:38;;;;;;;1.50;1.40;;;;;;;5.11;100.00;102349.63;5047706;28;20072;-83
2022/03/25 06:07:06;;;;;;;1.70;1.60;;;;;;;5.26;100.00;102373.78;5052532;28;20041;-83
2022/03/25 06:09:39;;;;;;;1.58;1.48;;;;;;;5.33;100.00;102373.78;5050424;28;20049;-83
2022/03/25 06:12:14;;;;;;;1.45;1.35;;;;;;;5.41;100.00;102384.41;5046688;28;20056;-83
2022/03/25 06:14:47;;;;;;;1.40;1.30;;;;;;;5.50;100.00;102385.06;5045271;28;20520;-83
2022/03/25 06:17:20;;;;;;;1.10;1.10;;;;;;;5.56;100.00;102383.41;5051803;28;20052;-83
2022/03/25 06:19:53;;;;;;;1.10;1.10;;;;;;;5.68;100.00;102386.34;5043195;28;20064;-83
2022/03/25 06:22:24;;;;;;;1.20;1.20;;;;;;;5.76;100.00;102386.16;5049954;28;20064;-84
2022/03/25 06:24:52;;;;;;;1.20;1.20;;;;;;;5.75;100.00;102379.09;5046447;28;20061;-84
2022/03/25 06:27:27;;;;;;;1.05;1.05;;;;;;;5.82;100.00;102388.03;5040328;28;20060;-84
2022/03/25 06:30:00;;;;;;;1.10;1.10;;;;;;;5.87;100.00;102385.53;5040039;28;20532;-85
2022/03/25 06:32:33;;;;;;;0.90;0.90;;;;;;;5.90;100.00;102382.41;5042127;28;20045;-85
2022/03/25 06:35:07;;;;;;;1.17;1.10;;;;;;;5.98;100.00;102377.88;5049646;28;20397;-85
2022/03/25 06:37:41;;;;;;;1.10;1.10;;;;;;;6.02;100.00;102371.03;5050721;28;20045;-85
2022/03/25 06:40:15;;;;;;;0.98;0.98;;;;;;;6.09;100.00;102378.09;5045955;28;20057;-85
2022/03/25 06:42:50;;;;;;;1.05;1.05;;;;;;;6.24;100.00;102388.72;5045324;28;20049;-84
2022/03/25 06:45:19;;;;;;;1.00;1.00;;;;;;;6.33;100.00;102389.31;5041025;28;20496;-85
2022/03/25 06:47:52;;;;;;;1.00;1.00;;;;;;;6.43;100.00;102384.31;5050702;28;20053;-85
2022/03/25 06:50:22;;;;;;;0.90;0.90;;;;;;;6.52;100.00;102384.94;5050975;28;20064;-85
2022/03/25 06:52:57;;;;;;;0.98;0.98;;;;;;;6.55;100.00;102379.09;5050895;28;20414;-85
2022/03/25 06:55:31;;;;;;;1.00;1.00;;;;;;;6.68;100.00;102388.22;5040176;28;20086;-85
2022/03/25 06:58:08;;;;;;;0.82;0.82;;;;;;;6.76;100.00;102388.81;5042759;28;20056;-84
2022/03/25 07:00:42;;;;;;;1.00;1.00;;;;;;;6.83;100.00;102388.81;5044145;28;20045;-85
2022/03/25 07:03:11;;;;;;;1.00;1.00;;;;;;;6.91;100.00;102396.69;5041066;28;20061;-85
2022/03/25 07:05:45;;;;;;;0.93;0.85;;;;;;;7.02;100.00;102403.34;5059992;28;20587;-85
2022/03/25 07:08:22;;;;;;;0.80;0.80;;;;;;;7.08;100.00;102393.53;5039562;28;20049;-85
2022/03/25 07:10:55;;;;;;;0.80;0.80;;;;;;;7.27;100.00;102395.31;5041686;28;20057;-86
2022/03/25 07:13:25;;;;;;;0.80;0.80;;;;;;;7.32;100.00;102400.09;5049307;28;20049;-85
2022/03/25 07:15:59;;;;;;;0.88;0.77;;;;;;;7.48;100.00;102402.31;5038999;28;20053;-86
2022/03/25 07:18:32;;;;;;;0.80;0.80;;;;;;;7.63;100.00;102401.16;5055033;28;20044;-85
2022/03/25 07:21:05;;;;;;;0.80;0.80;;;;;;;7.71;100.00;102400.09;5045428;28;20055;-85
2022/03/25 07:23:38;;;;;;;0.80;0.80;;;;;;;7.77;100.00;102397.31;5038434;28;20477;-84
2022/03/25 07:26:07;;;;;;;0.70;0.70;;;;;;;7.75;100.00;102393.19;5044617;28;20057;-85
2022/03/25 07:28:41;;;;;;;0.60;0.60;;;;;;;7.88;100.00;102400.41;5047342;28;20060;-86
2022/03/25 07:31:14;;;;;;;0.70;0.70;;;;;;;7.87;100.00;102401.44;5037552;28;20041;-84
2022/03/25 07:33:43;;;;;;;0.63;0.63;;;;;;;7.99;100.00;102407.81;5039274;28;20061;-86
2022/03/25 07:36:16;;;;;;;0.55;0.55;;;;;;;8.08;100.00;102398.38;5048417;28;20075;-86
2022/03/25 07:38:44;;;;;;;0.60;0.60;;;;;;;8.06;100.00;102395.03;5048611;28;20041;-89
2022/03/25 07:41:12;;;;;;;0.63;0.63;;;;;;;8.26;100.00;102405.72;5046137;28;20063;-85
2022/03/25 07:43:46;;;;;;;0.50;0.50;;;;;;;8.38;100.00;102405.00;5045204;28;20044;-83
2022/03/25 07:46:20;;;;;;;0.70;0.70;;;;;;;8.44;100.00;102401.41;5036692;28;20064;-83
2022/03/25 07:48:53;;;;;;;0.70;0.70;;;;;;;8.51;100.00;102410.34;5040680;28;20651;-82
2022/03/25 07:51:26;;;;;;;0.60;0.60;;;;;;;8.62;100.00;102415.03;5041958;28;20052;-81
2022/03/25 07:53:59;;;;;;;0.60;0.60;;;;;;;8.74;100.00;102408.84;5040549;28;20033;-81
2022/03/25 07:56:32;;;;;;;0.60;0.60;;;;;;;8.87;100.00;102414.16;5040603;28;20092;-82
2022/03/25 07:59:08;;;;;;;0.60;0.60;;;;;;;8.94;100.00;102417.63;5038524;28;20046;-82
2022/03/25 08:01:41;;;;;;;0.73;0.60;;;;;;;9.02;100.00;102425.47;5041290;28;20068;-84
2022/03/25 08:04:14;;;;;;;0.63;0.63;;;;;;;9.11;100.00;102433.31;5044949;28;20076;-81
2022/03/25 08:06:48;;;;;;;0.50;0.50;;;;;;;9.30;100.00;102428.69;5038947;28;20482;-83
2022/03/25 08:09:21;;;;;;;0.88;0.50;;;;;;;9.35;100.00;102426.94;5027956;28;20052;-83
2022/03/25 08:11:50;;;;;;;0.60;0.60;;;;;;;9.41;100.00;102435.25;5035024;28;20056;-82
2022/03/25 08:14:24;;;;;;;0.50;0.50;;;;;;;9.56;100.00;102438.41;5021046;28;20061;-81
2022/03/25 08:16:57;;;;;;;0.50;0.50;;;;;;;9.72;100.00;102428.75;5021359;28;20063;-81
2022/03/25 08:19:31;;;;;;;0.60;0.60;;;;;;;9.67;100.00;102440.31;5026396;28;20056;-82
2022/03/25 08:22:04;;;;;;;0.50;0.50;;;;;;;9.67;100.00;102451.19;5021115;28;20053;-83
2022/03/25 08:30:21;;;;;;;0.85;0.50;;;;;;;10.03;100.00;102449.44;5025639;28;20128;-82
2022/03/25 08:32:49;;;;;;;0.60;0.60;;;;;;;9.97;100.00;102447.66;5021075;28;20044;-81
2022/03/25 08:35:23;;;;;;;0.50;0.50;;;;;;;9.97;100.00;102452.25;5019209;28;20493;-82
2022/03/25 08:37:51;;;;;;;0.52;0.52;;;;;;;10.14;100.00;102447.78;5022003;28;20068;-81
2022/03/25 08:40:26;;;;;;;0.50;0.50;;;;;;;10.18;100.00;102449.00;5019775;28;20060;-80
2022/03/25 08:43:01;;;;;;;0.47;0.47;;;;;;;10.31;100.00;102449.84;5021331;28;20063;-81
2022/03/25 08:45:35;;;;;;;0.50;0.50;;;;;;;10.42;100.00;102449.06;5020752;28;20065;-80
2022/03/25 08:48:10;;;;;;;0.45;0.45;;;;;;;10.38;100.00;102451.44;5022734;28;20064;-81
2022/03/25 08:50:43;;;;;;;0.43;0.43;;;;;;;10.42;100.00;102449.06;5020451;28;20053;-81
2022/03/25 08:53:17;;;;;;;0.50;0.50;;;;;;;10.50;100.00;102451.44;5021375;28;20936;-81
2022/03/25 08:55:50;;;;;;;0.50;0.50;;;;;;;10.72;100.00;102451.66;5021112;28;22064;-80
2022/03/25 08:58:23;;;;;;;0.57;0.50;;;;;;;10.74;100.00;102451.44;5018822;28;20052;-80
2022/03/25 09:00:57;;;;;;;0.40;0.40;;;;;;;10.94;100.00;102451.06;5022448;28;21373;-80
2022/03/25 09:03:31;;;;;;;0.50;0.50;;;;;;;10.87;100.00;102445.75;5025954;28;20049;-80
2022/03/25 09:06:04;;;;;;;0.40;0.40;;;;;;;10.89;100.00;102453.66;5019969;28;20061;-81
2022/03/25 09:08:37;;;;;;;0.50;0.50;;;;;;;10.95;100.00;102452.72;5016551;28;20060;-81
2022/03/25 09:11:10;;;;;;;0.40;0.40;;;;;;;11.09;100.00;102445.13;5014644;28;20072;-80
2022/03/25 09:13:43;;;;;;;0.50;0.50;;;;;;;11.08;100.00;102446.19;5016940;28;20056;-84
2022/03/25 09:16:19;;;;;;;0.40;0.40;;;;;;;11.06;100.00;102440.97;5017316;28;20071;-80
2022/03/25 09:18:52;;;;;;;0.50;0.50;;;;;;;11.18;100.00;102445.56;5016884;28;20056;-80
2022/03/25 09:21:25;;;;;;;0.50;0.50;;;;;;;11.34;100.00;102453.00;5019638;28;20060;-81
2022/03/25 09:23:58;;;;;;;0.50;0.50;;;;;;;11.36;100.00;102448.13;5023175;28;20060;-79
2022/03/25 09:26:33;;;;;;;0.50;0.50;;;;;;;11.35;100.00;102448.38;5015501;28;21597;-82
2022/03/25 09:29:06;;;;;;;0.43;0.40;;;;;;;11.43;100.00;102447.16;5018616;28;20123;-82
2022/03/25 09:31:42;;;;;;;0.50;0.50;;;;;;;11.31;100.00;102444.47;5019100;28;20060;-81
2022/03/25 09:37:01;;;;;;;0.43;0.40;;;;;;;11.46;100.00;102449.41;5021476;28;20061;-81
2022/03/25 09:39:35;;;;;;;0.40;0.40;;;;;;;11.72;100.00;102451.56;5021280;28;20056;-81
2022/03/25 09:42:09;;;;;;;0.40;0.40;;;;;;;11.78;100.00;102443.47;5020586;28;20481;-81
2022/03/25 09:44:43;;;;;;;0.77;0.50;;;;;;;11.78;100.00;102448.91;5017539;28;20056;-80
2022/03/25 09:47:18;;;;;;;0.40;0.40;;;;;;;11.77;100.00;102448.09;5018860;28;20048;-81
2022/03/25 09:49:52;;;;;;;0.57;0.40;;;;;;;11.79;100.00;102456.03;5018741;28;20049;-81
2022/03/25 09:52:29;;;;;;;0.40;0.40;;;;;;;11.71;100.00;102449.91;5016871;28;20053;-81
2022/03/25 09:55:02;;;;;;;0.40;0.40;;;;;;;12.04;100.00;102455.69;5017338;28;20060;-81
2022/03/25 09:57:36;;;;;;;0.45;0.45;;;;;;;12.10;100.00;102457.44;5018185;28;20060;-80
2022/03/25 10:00:14;;;;;;;0.40;0.40;;;;;;;12.16;100.00;102456.44;5023815;28;20036;-80
2022/03/25 10:02:49;;;;;;;0.65;0.45;;;;;;;12.17;100.00;102451.84;5024478;28;20053;-80
2022/03/25 10:05:23;;;;;;;0.40;0.40;;;;;;;12.16;100.00;102452.91;5017913;28;20065;-81
2022/03/25 10:07:56;;;;;;;0.40;0.40;;;;;;;12.38;100.00;102456.53;5016908;28;20481;-81
2022/03/25 10:10:26;;;;;;;0.60;0.50;;;;;;;12.30;100.00;102453.41;5022668;28;20888;-81
2022/03/25 10:13:04;;;;;;;0.43;0.40;;;;;;;12.28;100.00;102450.94;5022699;28;20049;-81
2022/03/25 10:15:38;;;;;;;0.30;0.30;;;;;;;12.31;100.00;102452.34;5017361;28;20053;-80
2022/03/25 10:18:12;;;;;;;0.35;0.35;;;;;;;12.20;100.00;102451.34;5018081;28;20080;-80
2022/03/25 10:20:46;;;;;;;0.40;0.40;;;;;;;12.49;100.00;102448.53;5024933;28;20413;-81
2022/03/25 10:23:19;;;;;;;0.30;0.30;;;;;;;12.43;100.00;102450.34;5017635;28;20053;-80
2022/03/25 10:25:55;;;;;;;0.35;0.35;;;;;;;12.69;97.65;102445.25;5021589;28;20053;-80
2022/03/25 10:28:30;;;;;;;0.40;0.40;;;;;;;12.65;93.18;102447.69;5025104;28;20072;-80
2022/03/25 10:31:00;;;;;;;0.40;0.40;;;;;;;12.54;97.76;102454.88;5021617;28;20049;-80
2022/03/25 10:33:37;;;;;;;0.30;0.30;;;;;;;12.63;85.62;102449.81;5027976;28;20060;-80
2022/03/25 10:36:11;;;;;;;0.60;0.30;;;;;;;12.76;92.68;102451.41;5023886;28;20055;-80
2022/03/25 10:38:47;;;;;;;0.70;0.47;;;;;;;12.92;85.64;102444.22;5020591;28;20071;-81
2022/03/25 10:41:22;;;;;;;0.40;0.40;;;;;;;12.93;87.55;102457.63;5023289;28;20048;-80
2022/03/25 10:43:59;;;;;;;1.10;0.40;;;;;;;12.96;86.06;102456.31;5024548;28;20064;-80
2022/03/25 10:46:36;;;;;;;0.50;0.50;;;;;;;12.98;93.49;102445.13;5030580;28;20045;-81
2022/03/25 10:49:07;;;;;;;0.30;0.30;;;;;;;13.16;91.64;102449.44;5027425;28;20804;-82
2022/03/25 10:51:41;;;;;;;0.47;0.30;;;;;;;13.07;88.17;102447.16;5026177;28;20951;-82
2022/03/25 10:54:15;;;;;;;0.30;0.30;;;;;;;13.01;81.09;102445.44;5029364;28;20060;-82
2022/03/25 10:56:50;;;;;;;0.20;0.20;;;;;;;13.28;90.80;102444.69;5024802;28;20183;-82
2022/03/25 10:59:25;;;;;;;0.43;0.30;;;;;;;13.19;81.04;102438.84;5026213;28;20061;-81
2022/03/25 11:01:55;;;;;;;0.40;0.40;;;;;;;13.30;79.59;102448.00;5026979;28;20068;-81
2022/03/25 11:04:26;;;;;;;0.30;0.30;;;;;;;13.21;73.03;102441.31;5026765;28;20132;-80
2022/03/25 11:06:56;;;;;;;0.30;0.30;;;;;;;13.30;77.24;102450.75;5026194;28;20063;-80
2022/03/25 11:09:30;;;;;;;0.40;0.30;;;;;;;13.30;75.48;102441.69;4991814;28;20053;-80
2022/03/25 11:12:04;;;;;;;0.55;0.28;;;;;;;13.32;76.57;102447.75;5024211;28;20049;-80
2022/03/25 11:14:37;;;;;;;0.40;0.40;;;;;;;13.26;76.79;102457.78;5018311;28;20055;-80
2022/03/25 11:17:11;;;;;;;0.30;0.30;;;;;;;13.31;75.01;102452.38;5017023;28;20056;-80
2022/03/25 11:19:48;;;;;;;0.30;0.30;;;;;;;13.31;76.92;102459.75;5018769;28;21918;-81
2022/03/25 11:22:24;;;;;;;0.30;0.30;;;;;;;13.33;71.40;102460.34;5022441;28;20417;-80
2022/03/25 11:24:55;;;;;;;0.40;0.30;;;;;;;13.31;67.83;102457.03;5019710;28;20060;-81
2022/03/25 11:27:30;;;;;;;0.30;0.30;;;;;;;13.40;76.18;102458.25;5015585;28;20053;-81
2022/03/25 11:30:09;;;;;;;0.40;0.40;;;;;;;13.42;74.32;102458.81;5019626;28;20060;-83
2022/03/25 11:32:49;;;;;;;0.30;0.30;;;;;;;13.43;72.67;102446.81;5019433;28;20048;-82
2022/03/25 11:35:25;;;;;;;0.30;0.30;;;;;;;13.48;79.55;102444.13;5021252;28;20552;-81
2022/03/25 11:38:18;;;;;;;0.20;0.20;;;;;;;13.56;73.85;102442.84;5022188;28;20064;-80
2022/03/25 11:40:53;;;;;;;0.47;0.30;;;;;;;13.57;64.80;102436.28;5021635;28;20540;-80
2022/03/25 11:43:28;;;;;;;0.40;0.40;;;;;;;13.76;66.67;102439.50;5022668;28;20057;-81
2022/03/25 11:46:09;;;;;;;0.30;0.30;;;;;;;13.80;63.28;102439.84;5022282;28;20061;-80
2022/03/25 11:48:39;;;;;;;0.30;0.30;;;;;;;13.71;61.08;102443.03;5018623;28;20056;-80
2022/03/25 11:51:29;;;;;;;0.22;0.20;;;;;;;13.80;66.75;102435.16;5019718;28;20056;-81
2022/03/25 11:54:35;;;;;;;0.30;0.30;;;;;;;13.80;62.40;102421.50;5021980;28;20053;-80
2022/03/25 11:57:23;;;;;;;0.30;0.30;;;;;;;13.81;63.31;102422.31;5019822;28;20052;-79
2022/03/25 11:59:59;;;;;;;0.45;0.20;;;;;;;13.73;59.47;102418.13;5018441;28;20064;-80